createdAt,value
2023-04-25T00:01:25.157Z,40.71
2023-04-25T00:03:53.315Z,40.72
2023-04-25T00:06:21.261Z,40.72
2023-04-25T00:08:49.027Z,40.75
2023-04-25T00:11:16.730Z,40.74
2023-04-25T00:13:44.234Z,40.76
2023-04-25T00:16:12.482Z,40.77
2023-04-25T00:18:40.724Z,40.76
2023-04-25T00:21:08.362Z,40.79
2023-04-25T00:23:37.342Z,40.80
2023-04-25T00:26:05.005Z,40.82
2023-04-25T00:28:32.483Z,40.87
2023-04-25T00:30:59.947Z,40.86
2023-04-25T00:33:27.608Z,40.89
2023-04-25T00:35:55.280Z,40.90
2023-04-25T00:38:22.795Z,40.97
2023-04-25T00:40:50.884Z,41.07
2023-04-25T00:43:18.303Z,41.23
2023-04-25T00:45:45.774Z,41.06
2023-04-25T00:48:14.813Z,41.02
2023-04-25T00:50:42.196Z,41.05
2023-04-25T00:53:11.034Z,41.01
2023-04-25T00:55:38.780Z,41.00
2023-04-25T00:58:06.224Z,40.94
2023-04-25T01:00:33.662Z,40.99
2023-04-25T01:03:01.727Z,40.96
2023-04-25T01:05:29.260Z,40.94
2023-04-25T01:07:56.697Z,40.94
2023-04-25T01:10:24.462Z,40.95
2023-04-25T01:12:51.947Z,40.94
2023-04-25T01:15:19.387Z,40.90
2023-04-25T01:17:47.580Z,40.94
2023-04-25T01:20:15.107Z,41.02
2023-04-25T01:22:43.881Z,41.03
2023-04-25T01:25:12.185Z,41.04
2023-04-25T01:27:40.021Z,41.02
2023-04-25T01:30:08.234Z,41.07
2023-04-25T01:32:39.554Z,41.04
2023-04-25T01:35:10.721Z,40.98
2023-04-25T01:37:41.821Z,41.01
2023-04-25T01:40:10.838Z,41.00
2023-04-25T01:42:40.595Z,41.14
2023-04-25T01:45:08.801Z,41.12
2023-04-25T01:47:36.327Z,41.01
2023-04-25T01:50:05.351Z,41.00
2023-04-25T01:52:34.213Z,41.01
2023-04-25T01:55:05.266Z,40.99
2023-04-25T01:57:33.735Z,41.05
2023-04-25T02:00:03.877Z,41.03
2023-04-25T02:02:39.717Z,41.05
2023-04-25T02:05:08.496Z,41.07
2023-04-25T02:07:36.303Z,41.05
2023-04-25T02:10:03.783Z,41.04
2023-04-25T02:12:32.880Z,41.01
2023-04-25T02:15:00.600Z,40.99
2023-04-25T02:17:28.152Z,41.01
2023-04-25T02:19:55.824Z,41.05
2023-04-25T02:22:24.765Z,41.04
2023-04-25T02:24:52.178Z,41.04
2023-04-25T02:27:19.875Z,41.11
2023-04-25T02:29:47.566Z,41.16
2023-04-25T02:32:15.004Z,41.25
2023-04-25T02:34:42.413Z,41.16
2023-04-25T02:37:10.131Z,41.14
2023-04-25T02:39:37.554Z,41.13
2023-04-25T02:42:04.962Z,41.24
2023-04-25T02:44:32.671Z,41.29
2023-04-25T02:47:00.208Z,41.22
2023-04-25T02:49:27.683Z,41.25
2023-04-25T02:51:55.352Z,41.26
2023-04-25T02:54:22.798Z,41.29
2023-04-25T02:56:50.290Z,41.34
2023-04-25T02:59:18.607Z,41.38
2023-04-25T03:01:46.348Z,41.42
2023-04-25T03:04:13.880Z,41.43
2023-04-25T03:06:41.517Z,41.43
2023-04-25T03:09:08.931Z,41.32
2023-04-25T03:11:36.364Z,41.21
2023-04-25T03:14:04.276Z,41.19
2023-04-25T03:16:32.095Z,41.19
2023-04-25T03:18:59.519Z,41.26
2023-04-25T03:21:27.578Z,41.31
2023-04-25T03:23:55.065Z,41.31
2023-04-25T03:26:22.647Z,41.34
2023-04-25T03:28:50.310Z,41.34
2023-04-25T03:31:17.855Z,41.36
2023-04-25T03:33:45.348Z,41.47
2023-04-25T03:36:13.054Z,41.46
2023-04-25T03:38:42.301Z,41.49
2023-04-25T03:41:10.321Z,41.48
2023-04-25T03:43:38.134Z,41.53
2023-04-25T03:46:06.101Z,41.54
2023-04-25T03:48:33.567Z,41.55
2023-04-25T03:51:01.404Z,41.57
2023-04-25T03:53:29.487Z,41.56
2023-04-25T03:55:59.360Z,41.56
2023-04-25T03:58:27.024Z,41.37
2023-04-25T04:00:54.713Z,41.49
2023-04-25T04:03:22.558Z,41.59
2023-04-25T04:05:50.871Z,41.58
2023-04-25T04:08:18.593Z,41.60
2023-04-25T04:10:46.500Z,41.63
2023-04-25T04:13:14.483Z,41.65
2023-04-25T04:15:41.909Z,41.66
2023-04-25T04:18:09.733Z,41.63
2023-04-25T04:20:37.212Z,41.66
2023-04-25T04:23:04.803Z,41.66
2023-04-25T04:25:32.550Z,41.68
2023-04-25T04:28:01.966Z,41.63
2023-04-25T04:30:32.462Z,41.52
2023-04-25T04:33:01.902Z,41.47
2023-04-25T04:35:29.781Z,41.51
2023-04-25T04:37:57.230Z,41.55
2023-04-25T04:40:26.576Z,41.58
2023-04-25T04:42:57.440Z,41.56
2023-04-25T04:45:26.400Z,41.63
2023-04-25T04:47:56.319Z,41.67
2023-04-25T04:50:24.518Z,41.64
2023-04-25T04:52:52.998Z,41.44
2023-04-25T04:55:21.044Z,41.56
2023-04-25T04:57:49.898Z,41.67
2023-04-25T05:00:17.932Z,41.69
2023-04-25T05:02:46.428Z,41.68
2023-04-25T05:05:14.061Z,41.69
2023-04-25T05:07:42.945Z,41.68
2023-04-25T05:10:11.312Z,41.66
2023-04-25T05:12:39.009Z,41.63
2023-04-25T05:15:07.738Z,41.69
2023-04-25T05:17:35.594Z,41.69
2023-04-25T05:20:03.800Z,41.50
2023-04-25T05:22:32.053Z,41.42
2023-04-25T05:25:00.245Z,41.45
2023-04-25T05:27:28.209Z,41.53
2023-04-25T05:29:57.728Z,41.46
2023-04-25T05:32:26.205Z,41.45
2023-04-25T05:34:54.297Z,41.58
2023-04-25T05:37:22.162Z,41.63
2023-04-25T05:39:51.110Z,41.63
2023-04-25T05:42:18.985Z,41.56
2023-04-25T05:44:47.379Z,41.53
2023-04-25T05:47:14.917Z,41.49
2023-04-25T05:49:42.763Z,41.45
2023-04-25T05:52:10.716Z,41.40
2023-04-25T05:54:38.638Z,41.38
2023-04-25T05:57:06.086Z,41.33
2023-04-25T05:59:34.257Z,41.31
2023-04-25T06:02:02.000Z,41.28
2023-04-25T06:04:30.144Z,41.22
2023-04-25T06:06:57.848Z,41.18
2023-04-25T06:09:25.290Z,40.96
2023-04-25T06:11:54.575Z,41.03
2023-04-25T06:14:21.978Z,41.56
2023-04-25T06:16:49.614Z,41.82
2023-04-25T06:19:17.295Z,41.93
2023-04-25T06:21:44.912Z,41.91
2023-04-25T06:24:12.724Z,41.84
2023-04-25T06:26:40.617Z,41.79
2023-04-25T06:29:08.388Z,41.74
2023-04-25T06:31:36.374Z,41.68
2023-04-25T06:34:04.183Z,41.66
2023-04-25T06:36:33.541Z,41.63
2023-04-25T06:39:01.612Z,41.57
2023-04-25T06:41:29.395Z,41.54
2023-04-25T06:43:59.668Z,41.50
2023-04-25T06:46:28.493Z,41.47
2023-04-25T06:48:58.105Z,41.59
2023-04-25T06:51:25.657Z,41.65
2023-04-25T06:53:53.405Z,41.75
2023-04-25T06:56:24.299Z,41.78
2023-04-25T06:58:52.595Z,41.87
2023-04-25T07:01:21.086Z,41.90
2023-04-25T07:03:48.858Z,41.98
2023-04-25T07:06:16.736Z,42.04
2023-04-25T07:08:44.386Z,42.08
2023-04-25T07:11:11.792Z,42.14
2023-04-25T07:13:39.195Z,42.15
2023-04-25T07:16:07.063Z,42.21
2023-04-25T07:18:34.768Z,42.24
2023-04-25T07:21:02.397Z,42.29
2023-04-25T07:23:31.116Z,42.34
2023-04-25T07:25:59.621Z,42.37
2023-04-25T07:28:27.482Z,42.39
2023-04-25T07:30:55.288Z,42.41
2023-04-25T07:33:22.723Z,42.45
2023-04-25T07:35:50.262Z,42.54
2023-04-25T07:38:18.230Z,42.55
2023-04-25T07:40:46.368Z,42.58
2023-04-25T07:43:17.490Z,42.60
2023-04-25T07:45:46.163Z,42.63
2023-04-25T07:48:19.571Z,42.64
2023-04-25T07:50:47.280Z,42.71
2023-04-25T07:53:15.516Z,42.72
2023-04-25T07:55:43.501Z,42.75
2023-04-25T07:58:12.669Z,42.77
2023-04-25T08:00:40.862Z,42.79
2023-04-25T08:03:11.218Z,42.85
2023-04-25T08:05:39.349Z,42.92
2023-04-25T08:08:07.708Z,42.99
2023-04-25T08:10:35.746Z,43.04
2023-04-25T08:13:03.566Z,43.04
2023-04-25T08:15:31.555Z,43.06
2023-04-25T08:18:00.590Z,43.07
2023-04-25T08:20:28.130Z,43.05
2023-04-25T08:22:56.045Z,43.05
2023-04-25T08:25:24.344Z,43.04
2023-04-25T08:27:51.774Z,43.05
2023-04-25T08:30:21.919Z,43.04
2023-04-25T08:32:50.961Z,43.00
2023-04-25T08:35:21.548Z,42.77
2023-04-25T08:37:50.219Z,42.87
2023-04-25T08:40:17.985Z,42.88
2023-04-25T08:42:45.637Z,42.85
2023-04-25T08:45:14.467Z,42.76
2023-04-25T08:47:42.821Z,42.71
2023-04-25T08:50:10.461Z,42.66
2023-04-25T08:52:41.016Z,42.61
2023-04-25T08:55:09.455Z,42.55
2023-04-25T08:57:36.946Z,42.50
2023-04-25T09:00:05.254Z,42.44
2023-04-25T09:02:34.575Z,42.42
2023-04-25T09:05:05.228Z,42.32
2023-04-25T09:07:32.725Z,42.20
2023-04-25T09:10:02.868Z,42.20
2023-04-25T09:12:31.687Z,42.28
2023-04-25T09:15:20.836Z,42.12
2023-04-25T09:17:59.376Z,42.15
2023-04-25T09:20:27.337Z,42.13
2023-04-25T09:23:05.016Z,42.04
2023-04-25T09:25:37.768Z,42.01
2023-04-25T09:28:06.393Z,41.94
2023-04-25T09:30:34.927Z,42.02
2023-04-25T09:33:12.288Z,42.15
2023-04-25T09:35:46.554Z,42.21
2023-04-25T09:38:15.037Z,42.28
2023-04-25T09:40:47.449Z,42.36
2023-04-25T09:43:25.536Z,42.40
2023-04-25T09:45:55.738Z,42.42
2023-04-25T09:48:26.083Z,42.54
2023-04-25T09:51:16.163Z,42.59
2023-04-25T09:53:45.158Z,42.64
2023-04-25T09:56:13.967Z,42.69
2023-04-25T09:58:42.030Z,42.69
2023-04-25T10:01:11.170Z,42.75
2023-04-25T10:03:42.065Z,42.74
2023-04-25T10:06:20.350Z,42.74
2023-04-25T10:08:51.800Z,42.74
2023-04-25T10:11:19.267Z,42.71
2023-04-25T10:13:46.720Z,42.72
2023-04-25T10:16:14.483Z,42.68
2023-04-25T10:18:41.971Z,42.68
2023-04-25T10:21:09.351Z,42.65
2023-04-25T10:23:37.024Z,42.63
2023-04-25T10:26:04.474Z,42.60
2023-04-25T10:28:34.378Z,42.59
2023-04-25T10:31:03.976Z,42.58
2023-04-25T10:33:36.012Z,42.55
2023-04-25T10:36:19.377Z,42.52
2023-04-25T10:38:46.888Z,42.47
2023-04-25T10:41:14.659Z,42.44
2023-04-25T10:43:43.556Z,42.42
2023-04-25T10:46:24.499Z,42.42
2023-04-25T10:48:55.658Z,42.39
2023-04-25T10:51:24.478Z,42.30
2023-04-25T10:54:05.673Z,42.21
2023-04-25T10:56:42.937Z,42.12
2023-04-25T10:59:15.721Z,42.01
2023-04-25T11:01:52.790Z,41.98
2023-04-25T11:04:30.805Z,41.92
2023-04-25T11:07:08.268Z,41.88
2023-04-25T11:09:37.075Z,41.87
2023-04-25T11:12:04.811Z,41.87
2023-04-25T11:14:32.764Z,41.84
2023-04-25T11:17:01.160Z,41.83
2023-04-25T11:19:29.245Z,41.78
2023-04-25T11:22:01.007Z,41.79
2023-04-25T11:24:32.547Z,41.79
2023-04-25T11:27:00.335Z,41.80
2023-04-25T11:29:28.035Z,41.78
2023-04-25T11:31:58.970Z,41.79
2023-04-25T11:34:27.070Z,41.78
2023-04-25T11:36:54.600Z,41.84
2023-04-25T11:39:22.430Z,41.82
2023-04-25T11:41:49.913Z,41.80
2023-04-25T11:44:17.807Z,41.76
2023-04-25T11:46:45.704Z,41.70
2023-04-25T11:49:13.660Z,41.71
2023-04-25T11:51:44.538Z,41.69
2023-04-25T11:54:12.822Z,41.67
2023-04-25T11:56:44.162Z,41.64
2023-04-25T11:59:12.697Z,41.62
2023-04-25T12:01:41.756Z,41.53
2023-04-25T12:04:23.233Z,41.52
2023-04-25T12:06:54.953Z,41.49
2023-04-25T12:09:29.679Z,41.47
2023-04-25T12:11:58.996Z,41.46
2023-04-25T12:14:28.279Z,41.47
2023-04-25T12:16:58.276Z,41.42
2023-04-25T12:19:25.807Z,41.42
2023-04-25T12:21:58.403Z,41.40
2023-04-25T12:24:28.453Z,41.40
2023-04-25T12:27:03.905Z,41.44
2023-04-25T12:29:42.133Z,41.45
2023-04-25T12:32:16.396Z,41.48
2023-04-25T12:34:44.005Z,41.44
2023-04-25T12:37:11.606Z,41.46
2023-04-25T12:39:39.331Z,41.48
2023-04-25T12:42:09.645Z,41.48
2023-04-25T12:44:37.470Z,41.51
2023-04-25T12:47:05.626Z,41.53
2023-04-25T12:49:33.087Z,41.58
2023-04-25T12:52:00.508Z,41.72
2023-04-25T12:54:28.251Z,41.80
2023-04-25T12:56:56.424Z,41.84
2023-04-25T12:59:24.170Z,41.79
2023-04-25T13:01:51.914Z,41.82
2023-04-25T13:04:21.280Z,41.85
2023-04-25T13:06:48.759Z,41.94
2023-04-25T13:09:16.680Z,41.89
2023-04-25T13:11:44.512Z,41.96
2023-04-25T13:14:11.951Z,42.00
2023-04-25T13:16:39.733Z,42.09
2023-04-25T13:19:08.876Z,42.17
2023-04-25T13:21:36.668Z,42.14
2023-04-25T13:24:04.795Z,41.84
2023-04-25T13:26:32.265Z,41.79
2023-04-25T13:29:01.458Z,41.87
2023-04-25T13:31:29.156Z,41.80
2023-04-25T13:33:56.610Z,41.79
2023-04-25T13:36:24.041Z,41.77
2023-04-25T13:38:51.969Z,41.77
2023-04-25T13:41:19.903Z,41.72
2023-04-25T13:43:48.726Z,41.70
2023-04-25T13:46:35.367Z,41.67
2023-04-25T13:49:12.158Z,41.60
2023-04-25T13:51:40.768Z,41.55
2023-04-25T13:54:08.578Z,41.51
2023-04-25T13:56:36.283Z,41.50
2023-04-25T13:59:04.151Z,41.51
2023-04-25T14:01:35.120Z,41.60
2023-04-25T14:04:05.026Z,41.73
2023-04-25T14:06:33.181Z,41.82
2023-04-25T14:09:05.151Z,41.89
2023-04-25T14:11:32.860Z,42.04
2023-04-25T14:14:00.402Z,42.03
2023-04-25T14:16:28.341Z,42.05
2023-04-25T14:18:56.509Z,42.06
2023-04-25T14:21:23.941Z,42.04
2023-04-25T14:23:51.561Z,42.06
2023-04-25T14:26:19.796Z,42.07
2023-04-25T14:28:47.258Z,42.14
2023-04-25T14:31:14.692Z,42.13
2023-04-25T14:33:43.800Z,42.18
2023-04-25T14:36:11.585Z,42.23
2023-04-25T14:38:39.018Z,42.26
2023-04-25T14:41:06.890Z,42.24
2023-04-25T14:43:34.314Z,42.27
2023-04-25T14:46:02.669Z,42.30
2023-04-25T14:48:30.761Z,42.32
2023-04-25T14:50:58.350Z,42.35
2023-04-25T14:53:25.840Z,42.39
2023-04-25T14:55:53.521Z,42.39
2023-04-25T14:58:21.056Z,42.38
2023-04-25T15:00:48.520Z,42.39
2023-04-25T15:03:17.708Z,42.39
2023-04-25T15:05:45.454Z,42.44
2023-04-25T15:08:13.155Z,42.47
2023-04-25T15:10:40.971Z,42.48
2023-04-25T15:13:11.471Z,42.49
2023-04-25T15:15:38.997Z,42.51
2023-04-25T15:18:06.828Z,42.49
2023-04-25T15:20:34.301Z,42.49
2023-04-25T15:23:04.394Z,42.46
2023-04-25T15:25:32.121Z,42.54
2023-04-25T15:28:00.989Z,42.54
2023-04-25T15:30:28.418Z,42.53
2023-04-25T15:32:56.369Z,42.55
2023-04-25T15:35:23.827Z,42.57
2023-04-25T15:37:52.250Z,42.56
2023-04-25T15:40:20.148Z,42.48
2023-04-25T15:42:51.392Z,42.39
2023-04-25T15:45:20.493Z,42.28
2023-04-25T15:47:48.454Z,42.27
2023-04-25T15:50:16.285Z,42.24
2023-04-25T15:52:43.793Z,42.23
2023-04-25T15:55:12.937Z,42.27
2023-04-25T15:57:44.079Z,42.27
2023-04-25T16:00:17.087Z,42.22
2023-04-25T16:02:45.981Z,42.21
2023-04-25T16:05:14.644Z,42.19
2023-04-25T16:07:43.405Z,42.16
2023-04-25T16:10:11.523Z,42.14
2023-04-25T16:12:39.657Z,42.14
2023-04-25T16:15:07.786Z,42.09
2023-04-25T16:17:35.650Z,42.10
2023-04-25T16:20:09.534Z,42.12
2023-04-25T16:22:40.802Z,42.12
2023-04-25T16:25:08.904Z,42.10
2023-04-25T16:27:38.852Z,42.04
2023-04-25T16:30:10.505Z,41.91
2023-04-25T16:32:38.503Z,41.94
2023-04-25T16:35:06.336Z,41.94
2023-04-25T16:37:33.802Z,41.92
2023-04-25T16:40:01.478Z,41.90
2023-04-25T16:42:30.516Z,41.92
2023-04-25T16:44:58.219Z,41.87
2023-04-25T16:47:26.111Z,41.75
2023-04-25T16:49:53.735Z,41.78
2023-04-25T16:52:23.680Z,41.88
2023-04-25T16:54:51.892Z,41.93
2023-04-25T16:57:21.117Z,41.98
2023-04-25T16:59:50.270Z,42.02
2023-04-25T17:02:19.579Z,42.04
2023-04-25T17:04:47.569Z,42.04
2023-04-25T17:07:16.742Z,42.08
2023-04-25T17:09:44.379Z,42.09
2023-04-25T17:12:11.975Z,42.03
2023-04-25T17:14:40.039Z,42.03
2023-04-25T17:17:07.884Z,41.95
2023-04-25T17:19:35.524Z,42.01
2023-04-25T17:22:03.723Z,42.01
2023-04-25T17:24:31.503Z,42.04
2023-04-25T17:27:00.195Z,42.07
2023-04-25T17:29:31.171Z,42.08
2023-04-25T17:32:00.303Z,42.09
2023-04-25T17:34:27.925Z,42.09
2023-04-25T17:36:55.523Z,42.10
2023-04-25T17:39:23.767Z,42.11
2023-04-25T17:41:51.985Z,42.09
2023-04-25T17:44:20.463Z,42.09
2023-04-25T17:46:48.342Z,42.12
2023-04-25T17:49:16.184Z,42.13
2023-04-25T17:51:44.009Z,42.18
2023-04-25T17:54:12.201Z,42.16
2023-04-25T17:56:40.944Z,42.12
2023-04-25T17:59:08.831Z,42.14
2023-04-25T18:01:37.347Z,42.13
2023-04-25T18:04:06.835Z,42.13
2023-04-25T18:06:34.762Z,42.09
2023-04-25T18:09:02.542Z,42.11
2023-04-25T18:11:31.319Z,42.10
2023-04-25T18:13:59.574Z,42.09
2023-04-25T18:16:29.561Z,42.08
2023-04-25T18:19:05.656Z,42.08
2023-04-25T18:21:37.643Z,42.09
2023-04-25T18:24:09.044Z,42.08
2023-04-25T18:26:37.532Z,42.12
2023-04-25T18:29:08.037Z,42.11
2023-04-25T18:31:36.355Z,42.11
2023-04-25T18:34:04.967Z,41.96
2023-04-25T18:36:32.922Z,42.05
2023-04-25T18:39:11.656Z,42.12
2023-04-25T18:41:57.290Z,42.18
2023-04-25T18:44:28.011Z,42.20
2023-04-25T18:46:56.360Z,42.22
2023-04-25T18:49:24.397Z,42.17
2023-04-25T18:51:52.537Z,42.13
2023-04-25T18:54:20.393Z,42.10
2023-04-25T18:56:48.543Z,42.08
2023-04-25T18:59:17.755Z,42.08
2023-04-25T19:01:47.549Z,42.08
2023-04-25T19:04:16.088Z,42.08
2023-04-25T19:06:47.517Z,42.07
2023-04-25T19:09:15.806Z,42.06
2023-04-25T19:11:43.793Z,42.05
2023-04-25T19:14:13.676Z,42.02
2023-04-25T19:16:42.040Z,42.06
2023-04-25T19:19:10.792Z,42.04
2023-04-25T19:21:40.530Z,42.01
2023-04-25T19:24:09.376Z,40.65
2023-04-25T19:26:37.972Z,40.63
2023-04-25T19:29:12.279Z,40.70
2023-04-25T19:31:41.258Z,40.95
2023-04-25T19:34:09.840Z,41.06
2023-04-25T19:36:39.058Z,41.14
2023-04-25T19:39:07.788Z,41.16
2023-04-25T19:41:37.530Z,41.11
2023-04-25T19:44:09.177Z,41.14
2023-04-25T19:46:40.392Z,41.17
2023-04-25T19:49:08.930Z,41.15
2023-04-25T19:51:37.706Z,41.14
2023-04-25T19:54:05.909Z,41.17
2023-04-25T19:56:34.693Z,41.17
2023-04-25T19:59:02.465Z,41.20
2023-04-25T20:01:30.724Z,41.21
2023-04-25T20:04:00.070Z,41.22
2023-04-25T20:06:29.144Z,41.21
2023-04-25T20:08:57.082Z,41.21
2023-04-25T20:11:28.950Z,41.24
2023-04-25T20:13:56.691Z,41.27
2023-04-25T20:16:26.492Z,41.25
2023-04-25T20:18:54.811Z,41.28
2023-04-25T20:21:22.852Z,41.11
2023-04-25T20:23:50.743Z,41.20
2023-04-25T20:26:18.612Z,41.29
2023-04-25T20:28:46.281Z,41.31
2023-04-25T20:31:14.186Z,41.32
2023-04-25T20:33:43.927Z,41.31
2023-04-25T20:36:11.488Z,41.31
2023-04-25T20:38:39.521Z,41.33
2023-04-25T20:41:07.440Z,41.35
2023-04-25T20:43:35.009Z,41.35
2023-04-25T20:46:02.653Z,41.31
2023-04-25T20:48:30.360Z,41.27
2023-04-25T20:51:00.208Z,41.19
2023-04-25T20:53:27.735Z,41.21
2023-04-25T20:55:55.359Z,41.19
2023-04-25T20:58:22.884Z,41.20
2023-04-25T21:00:50.771Z,41.19
2023-04-25T21:03:18.538Z,41.20
2023-04-25T21:05:46.765Z,41.20
2023-04-25T21:08:14.324Z,41.20
2023-04-25T21:10:42.158Z,41.21
2023-04-25T21:13:09.649Z,41.20
2023-04-25T21:15:37.095Z,41.22
2023-04-25T21:18:04.914Z,41.23
2023-04-25T21:20:32.888Z,41.23
2023-04-25T21:23:00.360Z,41.26
2023-04-25T21:25:31.190Z,41.27
2023-04-25T21:27:59.057Z,41.30
2023-04-25T21:30:26.678Z,41.28
2023-04-25T21:32:54.519Z,41.29
2023-04-25T21:35:22.414Z,41.27
2023-04-25T21:37:50.980Z,41.29
2023-04-25T21:40:18.918Z,41.29
2023-04-25T21:42:49.983Z,41.29
2023-04-25T21:45:17.445Z,41.32
2023-04-25T21:47:46.668Z,41.42
2023-04-25T21:50:14.733Z,41.48
2023-04-25T21:52:42.216Z,41.55
2023-04-25T21:55:10.709Z,41.55
2023-04-25T21:57:38.073Z,41.54
2023-04-25T22:00:19.852Z,41.52
2023-04-25T22:02:48.487Z,41.58
2023-04-25T22:05:16.795Z,41.56
2023-04-25T22:07:44.158Z,41.56
2023-04-25T22:10:11.838Z,41.54
2023-04-25T22:12:39.888Z,41.61
2023-04-25T22:15:08.994Z,41.66
2023-04-25T22:17:36.957Z,41.62
2023-04-25T22:20:10.153Z,41.58
2023-04-25T22:22:37.866Z,41.53
2023-04-25T22:25:07.256Z,41.56
2023-04-25T22:27:34.907Z,41.52
2023-04-25T22:30:04.732Z,41.48
2023-04-25T22:32:32.816Z,41.47
2023-04-25T22:35:00.248Z,41.46
2023-04-25T22:37:28.835Z,41.45
2023-04-25T22:39:56.410Z,41.44
2023-04-25T22:42:24.301Z,41.47
2023-04-25T22:44:53.025Z,41.46
2023-04-25T22:47:22.923Z,41.46
2023-04-25T22:49:51.629Z,41.49
2023-04-25T22:52:19.335Z,41.55
2023-04-25T22:54:46.783Z,41.64
2023-04-25T22:57:14.255Z,41.68
2023-04-25T22:59:41.993Z,41.72
2023-04-25T23:02:09.442Z,41.75
2023-04-25T23:04:37.816Z,41.78
2023-04-25T23:07:05.573Z,41.87
2023-04-25T23:09:33.112Z,41.73
2023-04-25T23:12:00.463Z,41.61
2023-04-25T23:14:28.674Z,41.62
2023-04-25T23:16:56.230Z,41.66
2023-04-25T23:19:23.665Z,41.66
2023-04-25T23:21:51.851Z,41.79
2023-04-25T23:24:19.578Z,41.89
2023-04-25T23:26:47.018Z,41.96
2023-04-25T23:29:14.717Z,42.01
2023-04-25T23:31:42.202Z,42.06
2023-04-25T23:34:09.611Z,42.08
2023-04-25T23:36:37.397Z,42.10
2023-04-25T23:39:05.603Z,42.11
2023-04-25T23:41:33.489Z,42.10
2023-04-25T23:44:01.230Z,42.13
2023-04-25T23:46:28.995Z,42.16
2023-04-25T23:48:56.458Z,42.14
2023-04-25T23:51:25.223Z,42.10
2023-04-25T23:53:52.564Z,42.11
2023-04-25T23:56:19.943Z,42.15
2023-04-25T23:58:47.812Z,42.15
